Time;durP1;ratioP1;P1;durP2;ratioP2;P2;SDS_P1;SDS_P2;PMS_P1;PMS_P2;Temp;Humidity;BMP_temperature;BMP_pressure;BME280_temperature;BME280_humidity;BME280_pressure;Samples;Min_cycle;Max_cycle;Signal;HPM_P1;HPM_P2
2022/09/09 00:02:11;;;;;;;4.75;1.65;;;12.50;99.90;;;;;;4880521;29;20189;-83
2022/09/09 00:04:39;;;;;;;2.28;1.77;;;12.50;99.90;;;;;;4880697;29;20185;-83
2022/09/09 00:07:21;;;;;;;3.17;1.42;;;12.50;99.90;;;;;;4879522;29;20276;-82
2022/09/09 00:09:53;;;;;;;3.45;1.80;;;12.40;99.90;;;;;;4880587;29;20174;-82
2022/09/09 00:12:44;;;;;;;2.00;1.65;;;12.40;99.90;;;;;;4880558;29;20305;-82
2022/09/09 00:15:19;;;;;;;2.55;1.60;;;12.40;99.90;;;;;;4879260;29;20232;-82
2022/09/09 00:17:49;;;;;;;1.45;1.33;;;12.40;99.90;;;;;;4880432;29;20201;-82
2022/09/09 00:20:38;;;;;;;2.92;2.13;;;12.30;99.90;;;;;;4880101;29;20244;-82
2022/09/09 00:23:04;;;;;;;1.58;1.00;;;12.30;99.90;;;;;;4880325;29;20241;-82
2022/09/09 00:25:50;;;;;;;4.10;2.08;;;12.20;99.90;;;;;;4879074;29;20595;-82
2022/09/09 00:28:25;;;;;;;2.63;1.92;;;12.20;99.90;;;;;;4880501;29;20174;-82
2022/09/09 00:30:50;;;;;;;2.55;1.08;;;12.20;99.90;;;;;;4879112;29;20213;-83
2022/09/09 00:33:22;;;;;;;1.80;1.65;;;12.20;99.90;;;;;;4863478;29;20190;-83
2022/09/09 00:35:57;;;;;;;2.03;1.65;;;12.20;99.90;;;;;;4878172;29;20667;-82
2022/09/09 00:38:41;;;;;;;1.48;1.27;;;12.10;99.90;;;;;;4879173;29;20185;-82
2022/09/09 00:41:45;;;;;;;2.13;1.75;;;12.10;99.90;;;;;;4879149;29;20189;-82
2022/09/09 00:44:17;;;;;;;2.25;1.10;;;11.90;99.90;;;;;;4880068;29;20228;-83
2022/09/09 00:47:29;;;;;;;2.20;1.92;;;12.10;99.90;;;;;;4878590;29;20710;-83
2022/09/09 00:50:14;;;;;;;1.92;1.42;;;12.10;99.90;;;;;;4878636;29;20186;-83
2022/09/09 00:52:55;;;;;;;1.48;1.38;;;12.00;99.90;;;;;;4879726;29;20241;-83
2022/09/09 00:55:32;;;;;;;1.20;1.10;;;12.00;99.90;;;;;;4879983;29;20194;-82
2022/09/09 00:57:58;;;;;;;1.42;0.88;;;12.00;99.90;;;;;;4880161;29;20225;-82
2022/09/09 01:00:26;;;;;;;2.78;1.60;;;12.00;99.90;;;;;;4879006;29;20182;-82
2022/09/09 01:03:04;;;;;;;2.15;1.20;;;12.00;99.90;;;;;;4878545;29;20213;-83
2022/09/09 01:05:32;;;;;;;2.30;2.10;;;12.00;99.90;;;;;;4878723;29;20190;-84
2022/09/09 01:08:02;;;;;;;2.78;1.33;;;11.80;99.90;;;;;;4878643;29;20182;-82
2022/09/09 01:10:53;;;;;;;1.83;1.60;;;11.90;99.90;;;;;;4879828;29;20177;-82
2022/09/09 01:13:30;;;;;;;1.52;1.42;;;11.90;99.90;;;;;;4879890;29;20186;-82
2022/09/09 01:15:59;;;;;;;2.85;1.60;;;12.00;99.90;;;;;;4878652;29;20241;-82
2022/09/09 01:18:28;;;;;;;1.95;1.75;;;12.00;99.90;;;;;;4879930;29;20182;-82
2022/09/09 01:21:27;;;;;;;2.28;1.20;;;11.90;99.90;;;;;;4879221;29;20193;-82
2022/09/09 01:24:11;;;;;;;2.50;1.40;;;12.00;99.90;;;;;;4849529;29;20196;-82
2022/09/09 01:26:41;;;;;;;3.67;1.90;;;11.90;99.90;;;;;;4877915;29;20186;-83
2022/09/09 01:29:13;;;;;;;3.30;1.83;;;11.90;99.90;;;;;;4878250;29;20309;-81
2022/09/09 01:31:53;;;;;;;6.45;1.85;;;11.90;99.90;;;;;;4878370;29;20695;-82
2022/09/09 01:34:20;;;;;;;2.60;1.98;;;11.90;99.90;;;;;;4879443;29;20257;-82
2022/09/09 01:37:04;;;;;;;4.97;1.85;;;11.90;99.90;;;;;;4878910;29;20185;-82
2022/09/09 01:39:30;;;;;;;4.00;2.47;;;11.80;99.90;;;;;;4878178;29;20213;-82
2022/09/09 01:41:56;;;;;;;1.63;1.45;;;11.80;99.90;;;;;;4877678;29;20645;-82
2022/09/09 01:44:23;;;;;;;2.20;1.70;;;11.80;99.90;;;;;;4877829;29;20651;-82
2022/09/09 01:46:48;;;;;;;2.40;1.88;;;11.80;99.90;;;;;;4877844;29;20594;-82
2022/09/09 01:49:14;;;;;;;2.95;1.67;;;;;;;;;;4878946;29;20198;-82
2022/09/09 01:51:42;;;;;;;1.83;1.58;;;11.80;99.90;;;;;;4881000;29;20210;-81
2022/09/09 01:54:08;;;;;;;2.08;1.50;;;11.70;99.90;;;;;;4882308;29;20181;-82
2022/09/09 01:56:58;;;;;;;3.92;1.52;;;11.80;99.90;;;;;;4879056;29;20194;-81
2022/09/09 02:00:01;;;;;;;2.15;1.70;;;11.70;99.90;;;;;;4878162;29;20847;-81
2022/09/09 02:02:53;;;;;;;4.18;1.63;;;11.80;99.90;;;;;;4877980;29;20638;-81
2022/09/09 02:05:24;;;;;;;2.28;1.70;;;11.80;99.90;;;;;;4872320;29;20675;-83
2022/09/09 02:08:15;;;;;;;2.10;1.92;;;11.80;99.90;;;;;;4878929;29;20178;-82
2022/09/09 02:10:55;;;;;;;1.75;1.65;;;11.80;99.90;;;;;;4877560;29;20181;-83
2022/09/09 02:13:22;;;;;;;5.70;2.97;;;11.70;99.90;;;;;;4877793;29;20216;-82
2022/09/09 02:16:08;;;;;;;2.80;2.22;;;11.70;99.90;;;;;;4877297;29;20181;-82
2022/09/09 02:18:51;;;;;;;2.80;2.22;;;12.20;99.90;;;;;;4879016;29;20273;-82
2022/09/09 02:21:18;;;;;;;1.95;1.63;;;11.70;99.90;;;;;;4877651;29;20198;-82
2022/09/09 02:23:46;;;;;;;3.08;2.35;;;11.70;99.90;;;;;;4877593;29;20186;-82
2022/09/09 02:26:19;;;;;;;6.75;2.38;;;11.50;99.90;;;;;;4878875;29;20170;-82
2022/09/09 02:28:47;;;;;;;1.95;1.42;;;11.60;99.90;;;;;;4877988;29;20246;-83
2022/09/09 02:31:17;;;;;;;1.25;1.15;;;11.70;99.90;;;;;;4877564;29;20710;-83
2022/09/09 02:33:47;;;;;;;3.30;1.90;;;12.40;99.90;;;;;;4877366;29;20178;-84
2022/09/09 02:36:16;;;;;;;2.40;2.17;;;11.70;99.90;;;;;;4878763;29;20174;-82
2022/09/09 02:38:50;;;;;;;2.67;1.63;;;11.70;99.90;;;;;;4877374;29;20197;-83
2022/09/09 02:41:21;;;;;;;2.25;2.03;;;11.70;99.90;;;;;;4877793;29;20325;-83
2022/09/09 02:43:47;;;;;;;3.58;2.50;;;11.70;99.90;;;;;;4878172;29;20193;-83
2022/09/09 02:46:18;;;;;;;2.20;2.05;;;11.60;99.90;;;;;;4880803;29;20186;-82
2022/09/09 02:49:31;;;;;;;1.92;1.70;;;12.00;99.90;;;;;;4881838;29;20182;-82
2022/09/09 02:52:19;;;;;;;1.95;1.38;;;11.70;99.90;;;;;;4878691;29;20229;-82
2022/09/09 02:54:45;;;;;;;2.20;2.00;;;11.70;99.90;;;;;;4880568;29;20206;-83
2022/09/09 02:57:27;;;;;;;2.83;1.65;;;11.70;99.90;;;;;;4864988;29;20233;-83
2022/09/09 02:59:56;;;;;;;2.72;1.63;;;11.70;99.90;;;;;;4880357;29;20185;-82
2022/09/09 03:02:22;;;;;;;4.05;2.38;;;11.70;99.90;;;;;;4880863;29;20670;-82
2022/09/09 03:04:51;;;;;;;2.80;1.75;;;11.70;99.90;;;;;;4865048;29;20218;-83
2022/09/09 03:07:18;;;;;;;4.18;2.22;;;11.70;99.90;;;;;;4880546;29;20178;-83
2022/09/09 03:09:44;;;;;;;1.60;1.50;;;11.70;99.90;;;;;;4864904;29;20186;-83
2022/09/09 03:12:10;;;;;;;2.30;1.80;;;11.70;99.90;;;;;;4880664;29;20213;-82
2022/09/09 03:14:37;;;;;;;3.65;2.28;;;11.70;99.90;;;;;;4865583;29;20232;-82
2022/09/09 03:17:04;;;;;;;6.13;2.25;;;11.70;99.90;;;;;;4881572;29;20170;-83
2022/09/09 03:19:30;;;;;;;1.48;1.20;;;11.70;99.90;;;;;;4879950;29;20217;-82
2022/09/09 03:21:56;;;;;;;2.72;1.90;;;11.80;99.90;;;;;;4880283;29;20631;-81
2022/09/09 03:24:22;;;;;;;2.42;1.42;;;11.70;99.90;;;;;;4865112;29;20186;-81
2022/09/09 03:26:50;;;;;;;1.85;1.70;;;11.70;99.90;;;;;;4875650;29;20190;-82
2022/09/09 03:29:18;;;;;;;1.75;1.63;;;11.70;99.90;;;;;;4877788;29;20182;-82
2022/09/09 03:31:44;;;;;;;2.90;2.63;;;11.70;99.90;;;;;;4867016;29;20245;-82
2022/09/09 03:34:10;;;;;;;1.77;1.67;;;11.70;99.90;;;;;;4869962;29;20218;-81
2022/09/09 03:36:37;;;;;;;2.10;1.60;;;11.70;99.90;;;;;;4873138;29;20197;-81
2022/09/09 03:39:03;;;;;;;3.85;1.52;;;11.70;99.90;;;;;;4871749;29;20190;-80
2022/09/09 03:41:29;;;;;;;1.77;1.65;;;11.80;99.90;;;;;;4868862;29;20194;-80
2022/09/09 03:43:55;;;;;;;3.10;1.55;;;11.80;99.90;;;;;;4883212;29;20191;-82
2022/09/09 03:46:22;;;;;;;3.63;1.55;;;11.80;99.90;;;;;;4870610;29;20681;-80
2022/09/09 03:48:48;;;;;;;2.97;2.03;;;11.70;99.90;;;;;;4865116;29;20281;-80
2022/09/09 03:51:14;;;;;;;2.95;2.22;;;12.00;99.90;;;;;;4858848;29;20305;-81
2022/09/09 03:53:39;;;;;;;1.45;1.33;;;11.80;99.90;;;;;;4884164;29;20202;-82
2022/09/09 03:56:06;;;;;;;1.60;1.50;;;11.80;99.90;;;;;;4864828;29;20639;-81
2022/09/09 03:58:33;;;;;;;2.60;1.95;;;11.80;99.90;;;;;;4864715;29;20273;-83
2022/09/09 04:01:05;;;;;;;1.70;1.45;;;11.80;99.90;;;;;;4871278;29;20189;-82
2022/09/09 04:03:31;;;;;;;2.30;2.00;;;11.80;99.90;;;;;;4874666;29;20214;-81
2022/09/09 04:05:59;;;;;;;2.25;2.00;;;11.90;99.90;;;;;;4870433;29;20186;-81
2022/09/09 04:08:25;;;;;;;3.03;1.92;;;11.70;99.90;;;;;;4862346;29;20199;-81
2022/09/09 04:10:52;;;;;;;2.47;2.20;;;11.80;99.90;;;;;;4871203;29;20196;-80
2022/09/09 04:13:19;;;;;;;2.00;1.83;;;11.90;99.90;;;;;;4878199;29;20201;-80
2022/09/09 04:15:54;;;;;;;1.90;1.52;;;11.90;99.90;;;;;;4864663;29;20285;-81
2022/09/09 04:18:21;;;;;;;3.53;2.17;;;11.90;99.90;;;;;;4867336;29;20755;-81
2022/09/09 04:20:48;;;;;;;2.17;1.60;;;11.90;99.90;;;;;;4877703;29;20178;-80
2022/09/09 04:23:14;;;;;;;2.40;1.75;;;11.90;99.90;;;;;;4876043;29;20193;-81
2022/09/09 04:25:48;;;;;;;2.92;2.03;;;11.90;99.90;;;;;;4875893;29;20253;-82
2022/09/09 04:28:14;;;;;;;3.05;2.08;;;11.90;99.90;;;;;;4865496;29;20329;-81
2022/09/09 04:30:41;;;;;;;1.67;1.58;;;11.90;99.90;;;;;;4876549;29;20186;-81
2022/09/09 04:33:07;;;;;;;3.20;1.77;;;11.80;99.90;;;;;;4875694;29;20226;-82
2022/09/09 04:35:33;;;;;;;3.63;1.85;;;12.00;99.90;;;;;;4877750;29;20273;-82
2022/09/09 04:37:59;;;;;;;1.75;1.63;;;12.00;99.90;;;;;;4873226;29;20735;-82
2022/09/09 04:40:25;;;;;;;1.63;1.52;;;;;;;;;;4877381;29;20189;-82
2022/09/09 04:42:51;;;;;;;2.25;1.70;;;12.00;99.90;;;;;;4877045;29;20194;-82
2022/09/09 04:45:18;;;;;;;2.05;1.83;;;12.00;99.90;;;;;;4868330;29;20274;-82
2022/09/09 04:47:43;;;;;;;1.48;1.38;;;12.00;99.90;;;;;;4873620;29;20190;-81
2022/09/09 04:50:09;;;;;;;1.65;1.55;;;12.10;99.90;;;;;;4875233;29;20274;-81
2022/09/09 04:52:35;;;;;;;5.05;2.72;;;12.00;99.90;;;;;;4860525;29;20623;-81
2022/09/09 04:55:01;;;;;;;2.38;1.95;;;12.10;99.90;;;;;;4871933;29;20197;-82
2022/09/09 04:57:28;;;;;;;2.85;1.58;;;12.00;99.90;;;;;;4863193;29;20242;-81
2022/09/09 04:59:54;;;;;;;2.30;1.52;;;12.10;99.90;;;;;;4869304;29;20190;-82
2022/09/09 05:02:19;;;;;;;5.93;2.20;;;12.10;99.90;;;;;;4857165;29;20238;-82
2022/09/09 05:04:45;;;;;;;2.58;1.73;;;12.00;99.90;;;;;;4865668;29;20182;-84
2022/09/09 05:07:11;;;;;;;1.73;1.55;;;12.10;99.90;;;;;;4878038;29;20245;-83
2022/09/09 05:09:36;;;;;;;3.83;3.28;;;12.10;99.90;;;;;;4878280;29;20190;-83
2022/09/09 05:12:02;;;;;;;1.67;1.55;;;12.10;99.90;;;;;;4878086;29;20209;-83
2022/09/09 05:14:29;;;;;;;3.53;2.20;;;12.10;99.90;;;;;;4878164;29;20186;-83
2022/09/09 05:16:55;;;;;;;2.65;2.33;;;12.10;99.90;;;;;;4878126;29;20193;-81
2022/09/09 05:19:21;;;;;;;1.88;1.50;;;12.20;99.90;;;;;;4878149;29;20643;-84
2022/09/09 05:21:47;;;;;;;2.30;2.08;;;12.20;99.90;;;;;;4847706;29;20201;-84
2022/09/09 05:24:13;;;;;;;2.50;2.30;;;12.20;99.90;;;;;;4878364;29;20178;-83
2022/09/09 05:26:39;;;;;;;4.65;2.75;;;12.20;99.90;;;;;;4878073;29;20185;-83
2022/09/09 05:29:05;;;;;;;4.28;2.22;;;12.20;99.90;;;;;;4879284;29;20221;-84
2022/09/09 05:31:32;;;;;;;2.45;1.85;;;12.20;99.90;;;;;;4879404;29;20292;-83
2022/09/09 05:33:59;;;;;;;2.50;1.83;;;12.20;99.90;;;;;;4878767;29;20297;-83
2022/09/09 05:36:25;;;;;;;3.10;1.98;;;12.10;99.90;;;;;;4875169;29;20204;-84
2022/09/09 05:38:53;;;;;;;1.83;1.42;;;12.10;99.90;;;;;;4877346;29;20182;-83
2022/09/09 05:41:19;;;;;;;1.70;1.60;;;12.10;99.90;;;;;;4878955;29;20190;-83
2022/09/09 05:43:46;;;;;;;2.95;2.08;;;12.10;99.90;;;;;;4879082;29;20234;-82
2022/09/09 05:46:14;;;;;;;1.77;1.45;;;12.10;99.90;;;;;;4878983;29;20181;-82
2022/09/09 05:48:42;;;;;;;3.03;1.55;;;12.10;99.90;;;;;;4879194;29;20188;-83
2022/09/09 05:51:15;;;;;;;1.83;1.52;;;12.20;99.90;;;;;;4877803;29;20546;-82
2022/09/09 05:53:41;;;;;;;2.97;2.30;;;12.10;99.90;;;;;;4877531;29;20185;-82
2022/09/09 05:56:17;;;;;;;4.38;1.60;;;12.10;99.90;;;;;;4879278;29;20185;-81
2022/09/09 05:58:43;;;;;;;2.08;1.30;;;12.10;99.90;;;;;;4878866;29;20233;-83
2022/09/09 06:01:20;;;;;;;4.60;2.40;;;12.10;99.90;;;;;;4878075;29;20710;-83
2022/09/09 06:03:47;;;;;;;3.35;2.00;;;12.00;99.90;;;;;;4879109;29;20229;-84
2022/09/09 06:06:15;;;;;;;1.63;1.50;;;12.10;99.90;;;;;;4877717;29;20193;-83
2022/09/09 06:08:45;;;;;;;1.90;1.52;;;12.00;99.90;;;;;;4877621;29;20182;-83
2022/09/09 06:11:14;;;;;;;1.75;1.63;;;12.10;99.90;;;;;;4878004;29;20178;-82
2022/09/09 06:13:40;;;;;;;2.70;2.28;;;12.00;99.90;;;;;;4877928;29;20189;-83
2022/09/09 06:16:11;;;;;;;1.42;1.33;;;12.00;99.90;;;;;;4862661;29;20182;-83
2022/09/09 06:18:40;;;;;;;2.08;1.88;;;11.90;99.90;;;;;;4863825;29;20210;-82
2022/09/09 06:21:12;;;;;;;2.65;1.40;;;12.00;99.90;;;;;;4884345;29;20695;-83
2022/09/09 06:23:40;;;;;;;1.33;1.23;;;12.00;99.90;;;;;;4893267;29;20241;-83
2022/09/09 06:26:25;;;;;;;1.67;1.58;;;12.00;99.90;;;;;;4904667;29;20196;-85
2022/09/09 06:28:52;;;;;;;2.42;1.52;;;11.90;99.90;;;;;;4903495;29;20238;-84
2022/09/09 06:31:23;;;;;;;1.88;1.70;;;12.00;99.90;;;;;;4885109;29;20214;-83
2022/09/09 06:33:53;;;;;;;1.95;1.40;;;12.00;99.90;;;;;;4892961;29;20772;-83
2022/09/09 06:36:21;;;;;;;4.18;1.80;;;12.00;99.90;;;;;;4883536;29;20229;-83
2022/09/09 06:38:47;;;;;;;1.50;1.40;;;12.00;99.90;;;;;;4880862;29;20663;-84
2022/09/09 06:41:15;;;;;;;1.75;1.33;;;12.00;99.90;;;;;;4880579;29;20186;-83
2022/09/09 06:43:41;;;;;;;2.58;1.80;;;12.00;99.90;;;;;;4882700;29;20182;-83
2022/09/09 06:46:23;;;;;;;1.77;1.33;;;12.10;99.90;;;;;;4881244;29;20280;-85
2022/09/09 06:48:49;;;;;;;2.50;2.30;;;12.10;99.90;;;;;;4881127;29;20656;-83
2022/09/09 06:51:22;;;;;;;2.20;1.80;;;12.00;99.90;;;;;;4880864;29;20262;-84
2022/09/09 06:53:51;;;;;;;1.77;1.67;;;12.00;99.90;;;;;;4882030;29;20242;-84
2022/09/09 06:56:34;;;;;;;1.88;1.60;;;12.00;99.90;;;;;;4880645;29;20600;-83
2022/09/09 06:59:03;;;;;;;2.20;2.00;;;12.00;99.90;;;;;;4880522;29;20238;-84
2022/09/09 07:01:34;;;;;;;1.48;1.25;;;12.00;99.90;;;;;;4881753;29;20671;-83
2022/09/09 07:04:01;;;;;;;2.00;1.63;;;12.00;99.90;;;;;;4881266;29;20193;-84
2022/09/09 07:06:32;;;;;;;3.63;1.75;;;12.00;99.90;;;;;;4882110;29;20253;-84
2022/09/09 07:09:00;;;;;;;2.28;1.80;;;12.00;99.90;;;;;;4881880;29;20234;-83
2022/09/09 07:11:32;;;;;;;2.28;1.42;;;12.00;99.90;;;;;;4880454;29;20220;-82
2022/09/09 07:13:59;;;;;;;1.88;1.50;;;11.90;99.90;;;;;;4880488;29;20194;-83
2022/09/09 07:16:27;;;;;;;3.97;1.75;;;12.00;99.90;;;;;;4881675;29;20214;-84
2022/09/09 07:18:57;;;;;;;2.42;1.83;;;12.00;99.90;;;;;;4881886;29;20182;-84
2022/09/09 07:21:24;;;;;;;4.20;2.90;;;12.00;99.90;;;;;;4881008;29;20182;-86
2022/09/09 07:23:50;;;;;;;9.65;2.53;;;11.90;99.90;;;;;;4880131;29;20284;-85
2022/09/09 07:26:19;;;;;;;3.10;2.75;;;12.00;99.90;;;;;;4881412;29;20716;-84
2022/09/09 07:28:45;;;;;;;2.15;1.95;;;12.00;99.90;;;;;;4880831;29;20747;-82
2022/09/09 07:31:17;;;;;;;1.63;1.52;;;12.00;99.90;;;;;;4880000;29;20269;-85
2022/09/09 07:33:43;;;;;;;2.10;1.95;;;12.00;99.90;;;;;;4880880;29;20186;-82
2022/09/09 07:36:18;;;;;;;5.13;2.63;;;11.90;99.90;;;;;;4864699;29;20193;-82
2022/09/09 07:38:50;;;;;;;4.25;1.77;;;12.10;99.90;;;;;;4879879;29;20653;-83
2022/09/09 07:41:21;;;;;;;3.00;2.05;;;12.10;99.90;;;;;;4881479;29;20222;-82
2022/09/09 07:43:48;;;;;;;2.85;2.33;;;12.10;99.90;;;;;;4880012;29;20608;-82
2022/09/09 07:46:15;;;;;;;2.03;1.88;;;12.20;99.90;;;;;;4881216;29;20210;-81
2022/09/09 07:48:46;;;;;;;3.67;2.00;;;12.20;99.90;;;;;;4880746;29;20197;-82
2022/09/09 07:51:19;;;;;;;4.05;2.35;;;12.20;99.90;;;;;;4879867;29;20204;-81
2022/09/09 07:53:46;;;;;;;3.38;2.30;;;12.20;99.90;;;;;;4880039;29;20190;-82
2022/09/09 07:56:17;;;;;;;4.93;2.33;;;12.20;99.90;;;;;;4881249;29;20193;-83
2022/09/09 07:58:46;;;;;;;3.72;2.83;;;12.30;99.90;;;;;;4880597;29;20237;-82
2022/09/09 08:01:15;;;;;;;6.43;2.25;;;12.30;99.90;;;;;;4880853;29;20647;-82
2022/09/09 08:03:41;;;;;;;2.28;1.77;;;12.30;99.90;;;;;;4880586;29;20182;-83
2022/09/09 08:06:08;;;;;;;2.08;1.58;;;12.30;99.90;;;;;;4880021;29;20201;-84
2022/09/09 08:08:35;;;;;;;6.28;2.78;;;12.30;99.90;;;;;;4880856;29;20182;-85
2022/09/09 08:11:14;;;;;;;2.75;2.10;;;12.30;99.90;;;;;;4864157;29;20190;-83
2022/09/09 08:13:41;;;;;;;3.22;2.30;;;12.20;99.90;;;;;;4879089;29;20185;-82
2022/09/09 08:16:13;;;;;;;6.07;2.85;;;12.30;99.90;;;;;;4879269;29;20212;-85
2022/09/09 08:18:39;;;;;;;2.50;2.30;;;12.40;99.90;;;;;;4880171;29;20185;-84
2022/09/09 08:21:13;;;;;;;4.68;2.58;;;12.40;99.90;;;;;;4879000;29;20182;-86
2022/09/09 08:23:41;;;;;;;2.72;2.25;;;12.30;99.90;;;;;;4876203;29;20245;-84
2022/09/09 08:26:37;;;;;;;3.13;2.13;;;12.30;99.90;;;;;;4879633;29;20189;-83
2022/09/09 08:29:05;;;;;;;1.90;1.80;;;12.40;99.90;;;;;;4874830;29;20663;-85
2022/09/09 08:31:37;;;;;;;3.17;2.40;;;12.40;99.90;;;;;;4879183;29;20213;-83
2022/09/09 08:34:04;;;;;;;3.83;2.70;;;12.40;99.90;;;;;;4880559;29;20169;-84
2022/09/09 08:36:35;;;;;;;3.83;3.03;;;12.30;99.90;;;;;;4877910;29;20182;-83
2022/09/09 08:39:02;;;;;;;3.47;2.08;;;12.40;99.90;;;;;;4879538;29;20574;-83
2022/09/09 08:41:49;;;;;;;5.50;2.58;;;12.40;99.90;;;;;;4861591;29;20655;-84
2022/09/09 08:44:36;;;;;;;3.33;2.75;;;12.40;99.90;;;;;;4879255;29;20181;-83
2022/09/09 08:47:22;;;;;;;3.80;2.75;;;12.40;99.90;;;;;;4879469;29;20185;-83
2022/09/09 08:50:12;;;;;;;2.60;2.40;;;12.40;99.90;;;;;;4877448;29;20177;-82
2022/09/09 08:52:42;;;;;;;3.95;2.22;;;12.40;99.90;;;;;;4877049;29;20216;-82
2022/09/09 08:55:35;;;;;;;2.25;1.95;;;12.50;99.90;;;;;;4877058;29;20290;-81
2022/09/09 08:58:25;;;;;;;5.95;3.17;;;12.40;99.90;;;;;;4878558;29;20237;-84
2022/09/09 09:01:00;;;;;;;3.13;2.38;;;12.50;99.90;;;;;;4877771;29;20190;-81
2022/09/09 09:03:57;;;;;;;3.85;2.65;;;12.50;99.90;;;;;;4878450;29;20193;-85
2022/09/09 09:06:36;;;;;;;4.15;2.25;;;12.50;99.90;;;;;;4878622;29;20178;-83
2022/09/09 09:09:26;;;;;;;2.90;2.22;;;12.50;99.90;;;;;;4878798;29;20192;-83
2022/09/09 09:12:00;;;;;;;5.30;3.20;;;12.50;99.90;;;;;;4878280;29;20217;-83
2022/09/09 09:14:30;;;;;;;2.30;2.10;;;12.60;99.90;;;;;;4879672;29;20548;-83
2022/09/09 09:17:09;;;;;;;4.18;2.60;;;12.60;99.90;;;;;;4879492;29;20586;-84
2022/09/09 09:19:38;;;;;;;3.88;2.45;;;12.70;99.90;;;;;;4879756;29;20273;-83
2022/09/09 09:22:22;;;;;;;5.55;3.08;;;12.70;99.90;;;;;;4880223;29;20687;-84
2022/09/09 09:24:55;;;;;;;5.03;2.78;;;12.60;99.90;;;;;;4878147;29;21192;-84
2022/09/09 09:27:34;;;;;;;3.65;2.60;;;12.60;99.90;;;;;;4879133;29;20188;-85
2022/09/09 09:30:20;;;;;;;3.67;2.38;;;12.60;99.90;;;;;;4879783;29;20177;-85
2022/09/09 09:32:53;;;;;;;2.30;2.08;;;12.60;99.90;;;;;;4877856;29;20634;-84
2022/09/09 09:35:18;;;;;;;5.70;3.38;;;12.70;99.90;;;;;;4879293;29;20181;-84
2022/09/09 09:37:45;;;;;;;3.85;2.78;;;12.60;99.90;;;;;;4877872;29;20191;-84
2022/09/09 09:40:20;;;;;;;3.55;2.65;;;12.70;99.90;;;;;;4879483;29;20205;-84
2022/09/09 09:43:00;;;;;;;4.82;3.53;;;12.70;99.90;;;;;;4878943;29;20189;-86
2022/09/09 09:45:41;;;;;;;8.05;3.08;;;12.70;99.90;;;;;;4878275;29;20193;-85
2022/09/09 09:48:11;;;;;;;2.45;2.25;;;12.70;99.90;;;;;;4879193;29;20257;-84
2022/09/09 09:50:51;;;;;;;2.85;2.58;;;12.80;99.90;;;;;;4878811;29;20182;-83
2022/09/09 09:53:20;;;;;;;4.00;2.38;;;12.80;99.90;;;;;;4879961;29;20209;-85
2022/09/09 09:55:57;;;;;;;2.95;1.92;;;12.90;99.90;;;;;;4882613;29;20178;-84
2022/09/09 09:58:24;;;;;;;3.22;2.95;;;12.80;99.90;;;;;;4883136;29;20248;-85
2022/09/09 10:00:53;;;;;;;3.97;2.63;;;12.80;99.90;;;;;;4881350;29;20213;-84
2022/09/09 10:03:23;;;;;;;5.15;3.13;;;12.90;99.90;;;;;;4881747;29;20221;-84
2022/09/09 10:05:49;;;;;;;2.47;2.28;;;12.90;99.90;;;;;;4881688;29;20170;-84
2022/09/09 10:08:19;;;;;;;3.25;1.95;;;12.90;99.90;;;;;;4882090;29;20188;-84
2022/09/09 10:10:48;;;;;;;3.92;3.20;;;12.90;99.90;;;;;;4881333;29;20182;-84
2022/09/09 10:13:18;;;;;;;4.70;3.05;;;13.00;99.90;;;;;;4882772;29;20709;-84
2022/09/09 10:15:59;;;;;;;4.15;3.75;;;13.00;99.90;;;;;;4881445;29;20186;-84
2022/09/09 10:18:27;;;;;;;5.28;3.20;;;13.00;99.90;;;;;;4883211;29;20651;-84
2022/09/09 10:21:02;;;;;;;5.85;3.72;;;13.10;99.90;;;;;;4881222;29;20237;-85
2022/09/09 10:23:55;;;;;;;7.72;3.60;;;13.10;99.90;;;;;;4882934;29;20177;-85
2022/09/09 10:26:33;;;;;;;4.32;2.88;;;13.10;99.90;;;;;;4881415;29;20193;-85
2022/09/09 10:29:21;;;;;;;2.42;2.22;;;13.10;99.90;;;;;;4882542;29;20193;-85
2022/09/09 10:32:05;;;;;;;4.45;2.83;;;13.10;99.90;;;;;;4882515;29;20250;-86
2022/09/09 10:34:52;;;;;;;4.18;2.65;;;13.10;99.90;;;;;;4881529;29;20190;-84
2022/09/09 10:37:44;;;;;;;4.32;3.15;;;13.20;99.90;;;;;;4881811;29;20233;-85
2022/09/09 10:40:26;;;;;;;3.97;3.00;;;13.20;99.90;;;;;;4882425;29;20651;-86
2022/09/09 10:42:58;;;;;;;3.75;2.90;;;13.20;99.90;;;;;;4880989;29;20190;-84
2022/09/09 10:45:48;;;;;;;8.43;3.05;;;13.30;99.90;;;;;;4881258;29;20186;-83
2022/09/09 10:48:45;;;;;;;4.60;2.60;;;13.30;99.90;;;;;;4881213;29;20589;-83
2022/09/09 10:51:30;;;;;;;5.45;3.38;;;13.30;99.90;;;;;;4869643;29;20205;-83
2022/09/09 10:54:21;;;;;;;4.80;2.95;;;13.30;99.90;;;;;;4880814;29;20197;-83
2022/09/09 10:56:56;;;;;;;4.10;3.15;;;13.40;99.90;;;;;;4880769;29;20174;-83
2022/09/09 10:59:26;;;;;;;5.18;3.20;;;13.40;99.90;;;;;;4880785;29;20324;-83
2022/09/09 11:02:12;;;;;;;3.78;3.13;;;13.50;99.90;;;;;;4882021;29;20224;-84
2022/09/09 11:04:52;;;;;;;4.35;3.53;;;13.50;99.90;;;;;;4880533;29;20330;-83
2022/09/09 11:07:50;;;;;;;6.40;2.97;;;13.50;99.90;;;;;;4881822;29;20560;-82
2022/09/09 11:10:34;;;;;;;3.28;2.67;;;13.50;99.90;;;;;;4870681;29;20671;-83
2022/09/09 11:13:05;;;;;;;4.20;3.53;;;13.50;99.90;;;;;;4881547;29;20244;-85
2022/09/09 11:15:49;;;;;;;4.68;3.03;;;13.60;99.90;;;;;;4880541;29;20241;-83
2022/09/09 11:18:22;;;;;;;4.30;3.35;;;13.50;99.90;;;;;;4880637;29;20178;-86
2022/09/09 11:20:58;;;;;;;5.45;2.63;;;13.60;99.90;;;;;;4881987;29;20166;-83
2022/09/09 11:23:40;;;;;;;3.92;3.55;;;13.60;99.90;;;;;;4880882;29;20230;-83
2022/09/09 11:26:11;;;;;;;5.28;3.20;;;13.60;99.90;;;;;;4881216;29;20230;-86
2022/09/09 11:29:05;;;;;;;7.68;2.92;;;13.60;99.90;;;;;;4881633;29;20190;-83
2022/09/09 11:31:55;;;;;;;5.57;3.15;;;13.60;99.90;;;;;;4881079;29;20233;-83
2022/09/09 11:34:37;;;;;;;4.22;2.70;;;13.60;99.90;;;;;;4881234;29;20261;-83
2022/09/09 11:37:41;;;;;;;7.15;3.75;;;13.60;99.90;;;;;;4881252;29;20475;-82
2022/09/09 11:40:19;;;;;;;6.68;3.17;;;13.60;99.90;;;;;;4880047;29;20690;-83
2022/09/09 11:42:49;;;;;;;7.72;3.47;;;13.60;99.90;;;;;;4879656;29;20201;-84
2022/09/09 11:45:27;;;;;;;10.57;4.78;;;13.70;99.90;;;;;;4880840;29;20221;-83
2022/09/09 11:47:54;;;;;;;5.20;3.90;;;13.60;99.90;;;;;;4880615;29;20182;-82
2022/09/09 11:50:20;;;;;;;5.15;3.42;;;13.60;99.90;;;;;;4876180;29;20198;-82
2022/09/09 11:52:49;;;;;;;4.25;3.33;;;13.60;99.90;;;;;;4879623;29;20261;-85
2022/09/09 11:55:32;;;;;;;4.82;3.45;;;13.70;99.90;;;;;;4879334;29;20791;-84
2022/09/09 11:58:10;;;;;;;6.05;3.53;;;13.70;99.90;;;;;;4879537;29;20244;-82
2022/09/09 12:00:41;;;;;;;3.47;2.80;;;13.70;99.90;;;;;;4879441;29;20669;-84
2022/09/09 12:03:39;;;;;;;5.35;3.08;;;13.70;99.90;;;;;;4879194;29;20197;-84
2022/09/09 12:06:24;;;;;;;5.40;3.70;;;13.80;99.90;;;;;;4880064;29;20197;-85
2022/09/09 12:08:58;;;;;;;7.95;3.58;;;13.80;99.90;;;;;;4879750;29;20229;-85
2022/09/09 12:11:30;;;;;;;4.00;2.97;;;13.80;99.90;;;;;;4880830;29;20674;-84
2022/09/09 12:14:00;;;;;;;6.40;4.47;;;13.80;99.90;;;;;;4880807;29;20213;-83
2022/09/09 12:16:33;;;;;;;5.40;3.33;;;13.80;99.90;;;;;;4880643;29;20651;-82
2022/09/09 12:19:21;;;;;;;7.35;4.07;;;13.90;99.90;;;;;;4879486;29;20611;-83
2022/09/09 12:21:53;;;;;;;5.25;3.03;;;13.90;99.90;;;;;;4879667;29;20193;-84
2022/09/09 12:24:32;;;;;;;5.03;2.90;;;13.90;99.90;;;;;;4879559;29;20181;-83
2022/09/09 12:27:07;;;;;;;5.05;3.42;;;13.90;99.90;;;;;;4880386;29;20178;-83
2022/09/09 12:30:02;;;;;;;8.02;3.97;;;13.90;99.90;;;;;;4879602;29;20188;-82
2022/09/09 12:32:28;;;;;;;3.05;2.72;;;13.90;99.90;;;;;;4878703;29;20989;-84
2022/09/09 12:34:56;;;;;;;3.95;2.90;;;13.90;99.90;;;;;;4878851;29;20185;-86
2022/09/09 12:37:45;;;;;;;8.55;4.15;;;13.90;99.90;;;;;;4879568;29;20245;-84
2022/09/09 12:40:34;;;;;;;4.15;3.65;;;14.00;99.90;;;;;;4880175;29;20698;-83
2022/09/09 12:43:21;;;;;;;5.60;4.00;;;14.00;99.90;;;;;;4880120;29;20189;-85
2022/09/09 12:45:50;;;;;;;3.70;2.60;;;14.00;99.90;;;;;;4880144;29;20174;-88
2022/09/09 12:48:19;;;;;;;8.45;3.65;;;14.00;99.90;;;;;;4880950;29;20186;-84
2022/09/09 12:50:50;;;;;;;5.88;3.38;;;14.00;99.90;;;;;;4879803;29;20177;-85
2022/09/09 12:53:22;;;;;;;6.35;3.60;;;14.00;99.90;;;;;;4881065;29;20219;-85
2022/09/09 12:55:59;;;;;;;7.53;5.35;;;14.00;99.90;;;;;;4880641;29;20189;-87
2022/09/09 12:58:28;;;;;;;6.70;4.50;;;14.00;99.90;;;;;;4887075;29;20232;-83
2022/09/09 13:00:57;;;;;;;4.40;2.85;;;14.00;99.90;;;;;;4890408;29;20197;-86
2022/09/09 13:03:24;;;;;;;7.57;4.68;;;14.00;99.90;;;;;;4875979;29;20198;-84
2022/09/09 13:05:51;;;;;;;5.63;3.42;;;14.00;99.90;;;;;;4892923;29;20239;-84
2022/09/09 13:08:20;;;;;;;8.05;3.90;;;14.10;99.90;;;;;;4887483;29;20265;-84
2022/09/09 13:11:04;;;;;;;7.55;3.85;;;14.00;99.90;;;;;;4879182;29;20190;-84
2022/09/09 13:13:37;;;;;;;3.45;2.78;;;14.00;99.90;;;;;;4880219;29;20214;-84
2022/09/09 13:16:06;;;;;;;6.43;4.65;;;14.00;99.90;;;;;;4878894;29;20575;-83
2022/09/09 13:18:35;;;;;;;9.52;3.58;;;14.10;99.90;;;;;;4878908;29;20556;-86
2022/09/09 13:21:02;;;;;;;6.63;3.65;;;14.30;99.90;;;;;;4876809;29;20644;-85